Terminal Aerodrome Forecast
Issued by NWS

Home | Current Version | Previous Version | Text Only | Print | Product List | Glossary On
Versions: 1 2 3 4 5 6 7 8 9 10 11 12 13 14 15 16 17 18 19 20 21 22 23 24 25 26 27 28 29
000
FTUS42 KCAE 201700 CCA
TAFDNL
TAF COR
KDNL 201756Z 2018/2118 VRB03KT P6SM OVC007
      TEMPO 2018/2022 4SM BR OVC004
     FM210600 VRB03KT 2SM BR OVC004
     FM211300 VRB03KT 5SM BR OVC008
     FM211600 05005KT P6SM BKN015=

USA.gov is the U.S. government's official web portal to all federal, state and local government web resources and services.